sensor_id;sensor_type;location;lat;lon;timestamp;P1;durP1;ratioP1;P2;durP2;ratioP2
6898;SDS011;3488;42.616;23.350;2022-07-09T00:01:29;7.53;;;6.88;;
6898;SDS011;3488;42.616;23.350;2022-07-09T00:03:56;6.93;;;6.20;;
6898;SDS011;3488;42.616;23.350;2022-07-09T00:06:22;28.38;;;8.60;;
6898;SDS011;3488;42.616;23.350;2022-07-09T00:08:49;17.23;;;7.65;;
6898;SDS011;3488;42.616;23.350;2022-07-09T00:11:17;7.00;;;6.40;;
6898;SDS011;3488;42.616;23.350;2022-07-09T00:13:45;10.88;;;6.85;;
6898;SDS011;3488;42.616;23.350;2022-07-09T00:16:11;9.98;;;6.88;;
6898;SDS011;3488;42.616;23.350;2022-07-09T00:18:38;8.68;;;6.68;;
6898;SDS011;3488;42.616;23.350;2022-07-09T00:21:05;11.77;;;8.13;;
6898;SDS011;3488;42.616;23.350;2022-07-09T00:23:32;25.50;;;8.80;;
6898;SDS011;3488;42.616;23.350;2022-07-09T00:25:59;8.70;;;7.88;;
6898;SDS011;3488;42.616;23.350;2022-07-09T00:28:28;10.05;;;9.10;;
6898;SDS011;3488;42.616;23.350;2022-07-09T00:30:55;12.15;;;10.25;;
6898;SDS011;3488;42.616;23.350;2022-07-09T00:33:22;14.32;;;10.25;;
6898;SDS011;3488;42.616;23.350;2022-07-09T00:35:49;11.98;;;9.35;;
6898;SDS011;3488;42.616;23.350;2022-07-09T00:38:15;10.43;;;9.57;;
6898;SDS011;3488;42.616;23.350;2022-07-09T00:40:42;11.52;;;9.98;;
6898;SDS011;3488;42.616;23.350;2022-07-09T00:43:16;10.63;;;9.63;;
6898;SDS011;3488;42.616;23.350;2022-07-09T00:45:45;10.32;;;9.00;;
6898;SDS011;3488;42.616;23.350;2022-07-09T00:48:12;8.95;;;8.15;;
6898;SDS011;3488;42.616;23.350;2022-07-09T00:50:40;9.73;;;8.77;;
6898;SDS011;3488;42.616;23.350;2022-07-09T00:53:08;7.88;;;7.28;;
6898;SDS011;3488;42.616;23.350;2022-07-09T00:55:37;7.80;;;7.20;;
6898;SDS011;3488;42.616;23.350;2022-07-09T00:58:04;10.57;;;8.20;;
6898;SDS011;3488;42.616;23.350;2022-07-09T01:00:32;8.43;;;7.57;;
6898;SDS011;3488;42.616;23.350;2022-07-09T01:03:02;7.32;;;6.68;;
6898;SDS011;3488;42.616;23.350;2022-07-09T01:05:29;7.55;;;6.80;;
6898;SDS011;3488;42.616;23.350;2022-07-09T01:08:01;7.50;;;6.72;;
6898;SDS011;3488;42.616;23.350;2022-07-09T01:10:30;6.80;;;6.30;;
6898;SDS011;3488;42.616;23.350;2022-07-09T01:12:57;6.38;;;5.80;;
6898;SDS011;3488;42.616;23.350;2022-07-09T01:15:25;7.20;;;6.60;;
6898;SDS011;3488;42.616;23.350;2022-07-09T01:17:52;6.10;;;5.53;;
6898;SDS011;3488;42.616;23.350;2022-07-09T01:20:23;5.82;;;5.40;;
6898;SDS011;3488;42.616;23.350;2022-07-09T01:22:50;5.43;;;5.03;;
6898;SDS011;3488;42.616;23.350;2022-07-09T01:25:18;5.53;;;5.13;;
6898;SDS011;3488;42.616;23.350;2022-07-09T01:27:46;5.35;;;4.90;;
6898;SDS011;3488;42.616;23.350;2022-07-09T01:30:22;6.78;;;6.28;;
6898;SDS011;3488;42.616;23.350;2022-07-09T01:32:50;7.25;;;6.55;;
6898;SDS011;3488;42.616;23.350;2022-07-09T01:35:17;7.43;;;6.72;;
6898;SDS011;3488;42.616;23.350;2022-07-09T01:37:46;6.90;;;6.40;;
6898;SDS011;3488;42.616;23.350;2022-07-09T01:40:13;6.78;;;6.25;;
6898;SDS011;3488;42.616;23.350;2022-07-09T01:42:40;5.68;;;5.28;;
6898;SDS011;3488;42.616;23.350;2022-07-09T01:45:07;6.28;;;5.75;;
6898;SDS011;3488;42.616;23.350;2022-07-09T01:47:35;6.55;;;6.05;;
6898;SDS011;3488;42.616;23.350;2022-07-09T01:50:02;5.90;;;5.30;;
6898;SDS011;3488;42.616;23.350;2022-07-09T01:52:29;5.43;;;5.07;;
6898;SDS011;3488;42.616;23.350;2022-07-09T01:54:58;6.30;;;5.70;;
6898;SDS011;3488;42.616;23.350;2022-07-09T01:57:25;7.25;;;6.20;;
6898;SDS011;3488;42.616;23.350;2022-07-09T01:59:52;6.63;;;6.13;;
6898;SDS011;3488;42.616;23.350;2022-07-09T02:02:19;6.47;;;5.97;;
6898;SDS011;3488;42.616;23.350;2022-07-09T02:04:46;5.78;;;5.28;;
6898;SDS011;3488;42.616;23.350;2022-07-09T02:07:13;7.70;;;7.00;;
6898;SDS011;3488;42.616;23.350;2022-07-09T02:09:41;7.07;;;6.47;;
6898;SDS011;3488;42.616;23.350;2022-07-09T02:12:09;8.35;;;7.35;;
6898;SDS011;3488;42.616;23.350;2022-07-09T02:14:36;6.75;;;6.10;;
6898;SDS011;3488;42.616;23.350;2022-07-09T02:17:04;9.00;;;6.20;;
6898;SDS011;3488;42.616;23.350;2022-07-09T02:19:31;7.30;;;6.70;;
6898;SDS011;3488;42.616;23.350;2022-07-09T02:21:58;6.97;;;6.38;;
6898;SDS011;3488;42.616;23.350;2022-07-09T02:24:24;7.45;;;6.82;;
6898;SDS011;3488;42.616;23.350;2022-07-09T02:26:53;8.55;;;7.22;;
6898;SDS011;3488;42.616;23.350;2022-07-09T02:29:21;7.38;;;6.78;;
6898;SDS011;3488;42.616;23.350;2022-07-09T02:31:48;7.85;;;7.10;;
6898;SDS011;3488;42.616;23.350;2022-07-09T02:34:15;6.72;;;6.13;;
6898;SDS011;3488;42.616;23.350;2022-07-09T02:36:42;6.95;;;6.45;;
6898;SDS011;3488;42.616;23.350;2022-07-09T02:39:09;6.53;;;6.13;;
6898;SDS011;3488;42.616;23.350;2022-07-09T02:41:35;6.07;;;5.60;;
6898;SDS011;3488;42.616;23.350;2022-07-09T02:44:02;5.75;;;5.35;;
6898;SDS011;3488;42.616;23.350;2022-07-09T02:46:31;6.22;;;5.63;;
6898;SDS011;3488;42.616;23.350;2022-07-09T02:48:58;5.63;;;5.20;;
6898;SDS011;3488;42.616;23.350;2022-07-09T02:51:24;5.68;;;5.28;;
6898;SDS011;3488;42.616;23.350;2022-07-09T02:53:51;6.13;;;5.63;;
6898;SDS011;3488;42.616;23.350;2022-07-09T02:56:18;5.80;;;5.22;;
6898;SDS011;3488;42.616;23.350;2022-07-09T02:58:45;6.07;;;5.60;;
6898;SDS011;3488;42.616;23.350;2022-07-09T03:01:12;6.18;;;5.68;;
6898;SDS011;3488;42.616;23.350;2022-07-09T03:03:40;5.35;;;4.95;;
6898;SDS011;3488;42.616;23.350;2022-07-09T03:06:07;5.28;;;4.97;;
6898;SDS011;3488;42.616;23.350;2022-07-09T03:08:34;5.68;;;5.28;;
6898;SDS011;3488;42.616;23.350;2022-07-09T03:11:01;5.78;;;5.38;;
6898;SDS011;3488;42.616;23.350;2022-07-09T03:13:28;5.28;;;4.97;;
6898;SDS011;3488;42.616;23.350;2022-07-09T03:15:56;5.10;;;4.80;;
6898;SDS011;3488;42.616;23.350;2022-07-09T03:18:24;5.50;;;5.00;;
6898;SDS011;3488;42.616;23.350;2022-07-09T03:20:52;5.18;;;4.88;;
6898;SDS011;3488;42.616;23.350;2022-07-09T03:23:19;4.93;;;4.53;;
6898;SDS011;3488;42.616;23.350;2022-07-09T03:25:46;5.47;;;5.07;;
6898;SDS011;3488;42.616;23.350;2022-07-09T03:28:13;5.13;;;4.82;;
6898;SDS011;3488;42.616;23.350;2022-07-09T03:30:41;5.25;;;4.85;;
6898;SDS011;3488;42.616;23.350;2022-07-09T03:33:08;5.53;;;5.07;;
6898;SDS011;3488;42.616;23.350;2022-07-09T03:35:34;4.65;;;4.40;;
6898;SDS011;3488;42.616;23.350;2022-07-09T03:38:03;5.43;;;5.03;;
6898;SDS011;3488;42.616;23.350;2022-07-09T03:40:30;4.45;;;4.22;;
6898;SDS011;3488;42.616;23.350;2022-07-09T03:42:57;4.60;;;4.30;;
6898;SDS011;3488;42.616;23.350;2022-07-09T03:45:24;5.47;;;4.95;;
6898;SDS011;3488;42.616;23.350;2022-07-09T03:47:51;5.50;;;5.07;;
6898;SDS011;3488;42.616;23.350;2022-07-09T03:50:18;5.05;;;4.75;;
6898;SDS011;3488;42.616;23.350;2022-07-09T03:52:45;5.75;;;5.25;;
6898;SDS011;3488;42.616;23.350;2022-07-09T03:55:14;5.53;;;5.22;;
6898;SDS011;3488;42.616;23.350;2022-07-09T03:57:41;5.70;;;5.30;;
6898;SDS011;3488;42.616;23.350;2022-07-09T04:00:08;5.45;;;5.00;;
6898;SDS011;3488;42.616;23.350;2022-07-09T04:02:36;5.35;;;5.05;;
6898;SDS011;3488;42.616;23.350;2022-07-09T04:05:03;5.57;;;5.13;;
6898;SDS011;3488;42.616;23.350;2022-07-09T04:07:32;5.00;;;4.65;;
6898;SDS011;3488;42.616;23.350;2022-07-09T04:10:01;5.40;;;5.10;;
6898;SDS011;3488;42.616;23.350;2022-07-09T04:12:30;5.40;;;5.00;;
6898;SDS011;3488;42.616;23.350;2022-07-09T04:14:57;5.28;;;4.95;;
6898;SDS011;3488;42.616;23.350;2022-07-09T04:17:24;5.28;;;4.97;;
6898;SDS011;3488;42.616;23.350;2022-07-09T04:19:51;5.35;;;4.80;;
6898;SDS011;3488;42.616;23.350;2022-07-09T04:22:18;5.40;;;5.00;;
6898;SDS011;3488;42.616;23.350;2022-07-09T04:24:49;4.75;;;4.45;;
6898;SDS011;3488;42.616;23.350;2022-07-09T04:27:18;4.35;;;4.05;;
6898;SDS011;3488;42.616;23.350;2022-07-09T04:29:46;4.97;;;4.60;;
6898;SDS011;3488;42.616;23.350;2022-07-09T04:32:13;4.82;;;4.43;;
6898;SDS011;3488;42.616;23.350;2022-07-09T04:34:40;4.78;;;3.90;;
6898;SDS011;3488;42.616;23.350;2022-07-09T04:37:08;4.53;;;4.30;;
6898;SDS011;3488;42.616;23.350;2022-07-09T04:39:35;4.80;;;4.50;;
6898;SDS011;3488;42.616;23.350;2022-07-09T04:42:02;4.85;;;4.65;;
6898;SDS011;3488;42.616;23.350;2022-07-09T04:44:30;4.45;;;4.18;;
6898;SDS011;3488;42.616;23.350;2022-07-09T04:46:58;4.80;;;4.50;;
6898;SDS011;3488;42.616;23.350;2022-07-09T04:49:25;5.47;;;5.07;;
6898;SDS011;3488;42.616;23.350;2022-07-09T04:51:52;4.93;;;4.63;;
6898;SDS011;3488;42.616;23.350;2022-07-09T04:54:18;4.72;;;4.43;;
6898;SDS011;3488;42.616;23.350;2022-07-09T04:56:45;5.03;;;4.72;;
6898;SDS011;3488;42.616;23.350;2022-07-09T04:59:12;4.97;;;4.68;;
6898;SDS011;3488;42.616;23.350;2022-07-09T05:01:39;5.35;;;4.95;;
6898;SDS011;3488;42.616;23.350;2022-07-09T05:04:07;5.13;;;4.78;;
6898;SDS011;3488;42.616;23.350;2022-07-09T05:06:35;4.72;;;4.43;;
6898;SDS011;3488;42.616;23.350;2022-07-09T05:09:02;5.05;;;4.55;;
6898;SDS011;3488;42.616;23.350;2022-07-09T05:11:30;5.00;;;4.70;;
6898;SDS011;3488;42.616;23.350;2022-07-09T05:13:57;5.07;;;4.78;;
6898;SDS011;3488;42.616;23.350;2022-07-09T05:16:25;4.82;;;4.53;;
6898;SDS011;3488;42.616;23.350;2022-07-09T05:18:52;4.00;;;3.80;;
6898;SDS011;3488;42.616;23.350;2022-07-09T05:21:21;4.68;;;4.38;;
6898;SDS011;3488;42.616;23.350;2022-07-09T05:23:48;5.82;;;4.88;;
6898;SDS011;3488;42.616;23.350;2022-07-09T05:26:14;5.07;;;4.13;;
6898;SDS011;3488;42.616;23.350;2022-07-09T05:28:41;4.78;;;4.47;;
6898;SDS011;3488;42.616;23.350;2022-07-09T05:31:08;5.07;;;4.68;;
6898;SDS011;3488;42.616;23.350;2022-07-09T05:33:35;4.88;;;4.57;;
6898;SDS011;3488;42.616;23.350;2022-07-09T05:36:03;4.60;;;4.32;;
6898;SDS011;3488;42.616;23.350;2022-07-09T05:38:32;4.65;;;4.35;;
6898;SDS011;3488;42.616;23.350;2022-07-09T05:40:59;4.13;;;3.92;;
6898;SDS011;3488;42.616;23.350;2022-07-09T05:43:26;4.63;;;4.32;;
6898;SDS011;3488;42.616;23.350;2022-07-09T05:45:53;5.05;;;4.20;;
6898;SDS011;3488;42.616;23.350;2022-07-09T05:48:20;3.72;;;3.53;;
6898;SDS011;3488;42.616;23.350;2022-07-09T05:50:47;3.90;;;3.70;;
6898;SDS011;3488;42.616;23.350;2022-07-09T05:53:14;4.15;;;3.78;;
6898;SDS011;3488;42.616;23.350;2022-07-09T05:55:43;4.30;;;3.90;;
6898;SDS011;3488;42.616;23.350;2022-07-09T05:58:11;3.40;;;3.20;;
6898;SDS011;3488;42.616;23.350;2022-07-09T06:00:38;4.28;;;3.97;;
6898;SDS011;3488;42.616;23.350;2022-07-09T06:03:06;3.53;;;3.33;;
6898;SDS011;3488;42.616;23.350;2022-07-09T06:05:33;3.63;;;3.42;;
6898;SDS011;3488;42.616;23.350;2022-07-09T06:08:00;3.38;;;3.17;;
6898;SDS011;3488;42.616;23.350;2022-07-09T06:10:27;3.50;;;3.30;;
6898;SDS011;3488;42.616;23.350;2022-07-09T06:12:55;3.67;;;3.38;;
6898;SDS011;3488;42.616;23.350;2022-07-09T06:15:22;3.40;;;3.20;;
6898;SDS011;3488;42.616;23.350;2022-07-09T06:17:49;3.33;;;3.13;;
6898;SDS011;3488;42.616;23.350;2022-07-09T06:20:16;3.63;;;3.33;;
6898;SDS011;3488;42.616;23.350;2022-07-09T06:22:43;4.00;;;3.70;;
6898;SDS011;3488;42.616;23.350;2022-07-09T06:25:11;3.63;;;3.42;;
6898;SDS011;3488;42.616;23.350;2022-07-09T06:27:38;3.38;;;3.17;;
6898;SDS011;3488;42.616;23.350;2022-07-09T06:30:07;3.47;;;3.28;;
6898;SDS011;3488;42.616;23.350;2022-07-09T06:32:35;3.20;;;3.03;;
6898;SDS011;3488;42.616;23.350;2022-07-09T06:35:02;2.90;;;2.70;;
6898;SDS011;3488;42.616;23.350;2022-07-09T06:37:29;3.72;;;2.78;;
6898;SDS011;3488;42.616;23.350;2022-07-09T06:39:56;2.85;;;2.60;;
6898;SDS011;3488;42.616;23.350;2022-07-09T06:42:24;2.95;;;2.83;;
6898;SDS011;3488;42.616;23.350;2022-07-09T06:44:52;3.45;;;3.33;;
6898;SDS011;3488;42.616;23.350;2022-07-09T06:47:20;3.97;;;3.78;;
6898;SDS011;3488;42.616;23.350;2022-07-09T06:49:47;3.10;;;2.97;;
6898;SDS011;3488;42.616;23.350;2022-07-09T06:52:14;3.47;;;3.25;;
6898;SDS011;3488;42.616;23.350;2022-07-09T06:54:41;4.60;;;4.20;;
6898;SDS011;3488;42.616;23.350;2022-07-09T06:57:08;3.80;;;3.60;;
6898;SDS011;3488;42.616;23.350;2022-07-09T06:59:39;3.92;;;3.60;;
6898;SDS011;3488;42.616;23.350;2022-07-09T07:02:08;3.35;;;3.15;;
6898;SDS011;3488;42.616;23.350;2022-07-09T07:04:37;3.25;;;3.15;;
6898;SDS011;3488;42.616;23.350;2022-07-09T07:07:04;3.60;;;3.40;;
6898;SDS011;3488;42.616;23.350;2022-07-09T07:09:33;3.35;;;3.05;;
6898;SDS011;3488;42.616;23.350;2022-07-09T07:12:02;3.33;;;3.03;;
6898;SDS011;3488;42.616;23.350;2022-07-09T07:17:15;3.35;;;3.15;;
6898;SDS011;3488;42.616;23.350;2022-07-09T07:33:56;3.22;;;3.03;;
6898;SDS011;3488;42.616;23.350;2022-07-09T07:36:45;2.90;;;2.80;;
6898;SDS011;3488;42.616;23.350;2022-07-09T07:39:35;2.78;;;2.58;;
6898;SDS011;3488;42.616;23.350;2022-07-09T07:42:02;3.10;;;2.90;;
6898;SDS011;3488;42.616;23.350;2022-07-09T07:44:32;2.95;;;2.85;;
6898;SDS011;3488;42.616;23.350;2022-07-09T07:47:00;2.92;;;2.83;;
6898;SDS011;3488;42.616;23.350;2022-07-09T07:49:27;2.90;;;2.70;;
6898;SDS011;3488;42.616;23.350;2022-07-09T07:51:55;3.45;;;3.13;;
6898;SDS011;3488;42.616;23.350;2022-07-09T07:54:22;3.10;;;3.00;;
6898;SDS011;3488;42.616;23.350;2022-07-09T07:56:49;2.80;;;2.70;;
6898;SDS011;3488;42.616;23.350;2022-07-09T07:59:20;3.45;;;3.30;;
6898;SDS011;3488;42.616;23.350;2022-07-09T08:01:47;3.42;;;3.22;;
6898;SDS011;3488;42.616;23.350;2022-07-09T08:04:16;3.85;;;3.65;;
6898;SDS011;3488;42.616;23.350;2022-07-09T08:06:44;4.45;;;4.05;;
6898;SDS011;3488;42.616;23.350;2022-07-09T08:09:12;3.33;;;3.13;;
6898;SDS011;3488;42.616;23.350;2022-07-09T08:11:40;3.40;;;3.20;;
6898;SDS011;3488;42.616;23.350;2022-07-09T08:14:07;5.53;;;3.70;;
6898;SDS011;3488;42.616;23.350;2022-07-09T08:16:37;3.63;;;3.42;;
6898;SDS011;3488;42.616;23.350;2022-07-09T08:19:05;3.03;;;2.88;;
6898;SDS011;3488;42.616;23.350;2022-07-09T08:21:34;3.70;;;3.42;;
6898;SDS011;3488;42.616;23.350;2022-07-09T08:24:01;4.93;;;3.10;;
6898;SDS011;3488;42.616;23.350;2022-07-09T08:26:30;3.33;;;3.17;;
6898;SDS011;3488;42.616;23.350;2022-07-09T08:29:00;3.78;;;3.58;;
6898;SDS011;3488;42.616;23.350;2022-07-09T08:31:28;3.88;;;3.03;;
6898;SDS011;3488;42.616;23.350;2022-07-09T08:33:56;3.50;;;3.33;;
6898;SDS011;3488;42.616;23.350;2022-07-09T08:36:23;3.42;;;3.22;;
6898;SDS011;3488;42.616;23.350;2022-07-09T08:38:52;3.50;;;3.30;;
6898;SDS011;3488;42.616;23.350;2022-07-09T08:41:19;4.28;;;3.97;;
6898;SDS011;3488;42.616;23.350;2022-07-09T08:43:50;3.40;;;3.30;;
6898;SDS011;3488;42.616;23.350;2022-07-09T08:46:18;3.63;;;3.42;;
6898;SDS011;3488;42.616;23.350;2022-07-09T08:48:46;3.63;;;3.42;;
6898;SDS011;3488;42.616;23.350;2022-07-09T08:51:13;3.53;;;3.22;;
6898;SDS011;3488;42.616;23.350;2022-07-09T08:53:41;4.10;;;3.90;;
6898;SDS011;3488;42.616;23.350;2022-07-09T08:56:12;4.82;;;3.83;;
6898;SDS011;3488;42.616;23.350;2022-07-09T08:58:42;3.80;;;3.60;;
6898;SDS011;3488;42.616;23.350;2022-07-09T09:01:10;3.60;;;3.47;;
6898;SDS011;3488;42.616;23.350;2022-07-09T09:03:40;3.83;;;3.63;;
6898;SDS011;3488;42.616;23.350;2022-07-09T09:06:10;3.38;;;3.28;;
6898;SDS011;3488;42.616;23.350;2022-07-09T09:08:39;3.38;;;3.17;;
6898;SDS011;3488;42.616;23.350;2022-07-09T09:11:08;3.75;;;3.45;;
6898;SDS011;3488;42.616;23.350;2022-07-09T09:13:41;3.92;;;3.72;;
6898;SDS011;3488;42.616;23.350;2022-07-09T09:19:15;3.88;;;3.58;;
6898;SDS011;3488;42.616;23.350;2022-07-09T09:21:43;4.30;;;4.10;;
6898;SDS011;3488;42.616;23.350;2022-07-09T09:24:10;4.55;;;4.15;;
6898;SDS011;3488;42.616;23.350;2022-07-09T09:26:37;4.65;;;4.35;;
6898;SDS011;3488;42.616;23.350;2022-07-09T09:29:05;5.13;;;4.70;;
6898;SDS011;3488;42.616;23.350;2022-07-09T09:31:36;4.68;;;4.40;;
6898;SDS011;3488;42.616;23.350;2022-07-09T09:34:10;5.32;;;4.93;;
6898;SDS011;3488;42.616;23.350;2022-07-09T09:36:39;6.38;;;5.03;;
6898;SDS011;3488;42.616;23.350;2022-07-09T09:39:12;6.03;;;5.13;;
6898;SDS011;3488;42.616;23.350;2022-07-09T09:41:41;5.32;;;4.93;;
6898;SDS011;3488;42.616;23.350;2022-07-09T09:44:11;5.25;;;4.95;;
6898;SDS011;3488;42.616;23.350;2022-07-09T09:46:40;6.15;;;5.75;;
6898;SDS011;3488;42.616;23.350;2022-07-09T09:49:09;6.43;;;6.00;;
6898;SDS011;3488;42.616;23.350;2022-07-09T09:51:42;6.85;;;6.28;;
6898;SDS011;3488;42.616;23.350;2022-07-09T09:54:15;6.57;;;5.93;;
6898;SDS011;3488;42.616;23.350;2022-07-09T09:56:43;7.80;;;7.15;;
6898;SDS011;3488;42.616;23.350;2022-07-09T09:59:13;6.93;;;6.38;;
6898;SDS011;3488;42.616;23.350;2022-07-09T10:01:41;8.55;;;7.90;;
6898;SDS011;3488;42.616;23.350;2022-07-09T10:04:10;7.97;;;7.38;;
6898;SDS011;3488;42.616;23.350;2022-07-09T10:06:38;7.68;;;7.07;;
6898;SDS011;3488;42.616;23.350;2022-07-09T10:09:06;7.00;;;6.40;;
6898;SDS011;3488;42.616;23.350;2022-07-09T10:11:38;8.27;;;6.50;;
6898;SDS011;3488;42.616;23.350;2022-07-09T10:14:16;8.77;;;7.43;;
6898;SDS011;3488;42.616;23.350;2022-07-09T10:16:45;8.32;;;7.60;;
6898;SDS011;3488;42.616;23.350;2022-07-09T10:19:21;7.57;;;6.90;;
6898;SDS011;3488;42.616;23.350;2022-07-09T10:21:51;7.22;;;6.63;;
6898;SDS011;3488;42.616;23.350;2022-07-09T10:24:23;6.72;;;6.13;;
6898;SDS011;3488;42.616;23.350;2022-07-09T10:26:51;7.07;;;6.47;;
6898;SDS011;3488;42.616;23.350;2022-07-09T10:29:23;6.93;;;6.10;;
6898;SDS011;3488;42.616;23.350;2022-07-09T10:31:50;5.93;;;5.32;;
6898;SDS011;3488;42.616;23.350;2022-07-09T10:34:30;6.50;;;5.90;;
6898;SDS011;3488;42.616;23.350;2022-07-09T10:37:03;7.07;;;6.47;;
6898;SDS011;3488;42.616;23.350;2022-07-09T10:39:30;5.95;;;5.45;;
6898;SDS011;3488;42.616;23.350;2022-07-09T10:41:59;5.93;;;5.53;;
6898;SDS011;3488;42.616;23.350;2022-07-09T10:44:28;6.63;;;5.97;;
6898;SDS011;3488;42.616;23.350;2022-07-09T10:46:59;6.82;;;6.22;;
6898;SDS011;3488;42.616;23.350;2022-07-09T10:49:27;6.13;;;5.63;;
6898;SDS011;3488;42.616;23.350;2022-07-09T10:51:55;6.45;;;5.97;;
6898;SDS011;3488;42.616;23.350;2022-07-09T10:54:24;8.65;;;6.18;;
6898;SDS011;3488;42.616;23.350;2022-07-09T10:56:51;6.35;;;5.90;;
6898;SDS011;3488;42.616;23.350;2022-07-09T10:59:19;6.30;;;5.90;;
6898;SDS011;3488;42.616;23.350;2022-07-09T11:01:50;6.32;;;5.85;;
6898;SDS011;3488;42.616;23.350;2022-07-09T11:04:24;6.10;;;5.50;;
6898;SDS011;3488;42.616;23.350;2022-07-09T11:06:52;6.03;;;5.53;;
6898;SDS011;3488;42.616;23.350;2022-07-09T11:09:31;5.15;;;4.85;;
6898;SDS011;3488;42.616;23.350;2022-07-09T11:15:57;2.90;;;2.80;;
6898;SDS011;3488;42.616;23.350;2022-07-09T11:26:19;9.25;;;3.08;;
6898;SDS011;3488;42.616;23.350;2022-07-09T11:47:30;2.53;;;2.42;;
6898;SDS011;3488;42.616;23.350;2022-07-09T11:49:56;2.53;;;2.33;;
6898;SDS011;3488;42.616;23.350;2022-07-09T11:52:54;2.22;;;2.13;;
6898;SDS011;3488;42.616;23.350;2022-07-09T12:06:50;1.77;;;1.77;;
6898;SDS011;3488;42.616;23.350;2022-07-09T12:09:26;1.67;;;1.60;;
6898;SDS011;3488;42.616;23.350;2022-07-09T12:11:56;1.98;;;1.88;;
6898;SDS011;3488;42.616;23.350;2022-07-09T12:14:25;2.38;;;1.83;;
6898;SDS011;3488;42.616;23.350;2022-07-09T12:16:56;2.00;;;1.90;;
6898;SDS011;3488;42.616;23.350;2022-07-09T12:19:25;2.20;;;2.10;;
6898;SDS011;3488;42.616;23.350;2022-07-09T12:21:52;2.00;;;1.90;;
6898;SDS011;3488;42.616;23.350;2022-07-09T12:24:22;1.73;;;1.63;;
6898;SDS011;3488;42.616;23.350;2022-07-09T12:26:49;1.67;;;1.67;;
6898;SDS011;3488;42.616;23.350;2022-07-09T12:29:16;3.53;;;2.30;;
6898;SDS011;3488;42.616;23.350;2022-07-09T12:31:51;1.83;;;1.83;;
6898;SDS011;3488;42.616;23.350;2022-07-09T12:34:18;2.00;;;1.90;;
6898;SDS011;3488;42.616;23.350;2022-07-09T12:36:47;1.73;;;1.73;;
6898;SDS011;3488;42.616;23.350;2022-07-09T12:39:18;1.60;;;1.60;;
6898;SDS011;3488;42.616;23.350;2022-07-09T12:41:45;1.73;;;1.65;;
6898;SDS011;3488;42.616;23.350;2022-07-09T12:44:13;2.13;;;2.03;;
6898;SDS011;3488;42.616;23.350;2022-07-09T12:46:40;1.80;;;1.70;;
6898;SDS011;3488;42.616;23.350;2022-07-09T12:49:08;1.80;;;1.70;;
6898;SDS011;3488;42.616;23.350;2022-07-09T12:51:35;1.73;;;1.73;;
6898;SDS011;3488;42.616;23.350;2022-07-09T12:54:04;2.03;;;1.92;;
6898;SDS011;3488;42.616;23.350;2022-07-09T12:56:31;3.33;;;1.85;;
6898;SDS011;3488;42.616;23.350;2022-07-09T12:58:58;1.77;;;1.77;;
6898;SDS011;3488;42.616;23.350;2022-07-09T13:01:25;2.08;;;1.95;;
6898;SDS011;3488;42.616;23.350;2022-07-09T13:03:52;2.80;;;2.60;;
6898;SDS011;3488;42.616;23.350;2022-07-09T13:06:20;2.92;;;1.70;;
6898;SDS011;3488;42.616;23.350;2022-07-09T13:09:00;1.83;;;1.80;;
6898;SDS011;3488;42.616;23.350;2022-07-09T13:11:30;1.60;;;1.60;;
6898;SDS011;3488;42.616;23.350;2022-07-09T13:13:57;4.18;;;2.00;;
6898;SDS011;3488;42.616;23.350;2022-07-09T13:16:24;2.33;;;1.88;;
6898;SDS011;3488;42.616;23.350;2022-07-09T13:18:52;2.10;;;2.00;;
6898;SDS011;3488;42.616;23.350;2022-07-09T13:21:19;2.33;;;2.22;;
6898;SDS011;3488;42.616;23.350;2022-07-09T13:23:47;1.60;;;1.60;;
6898;SDS011;3488;42.616;23.350;2022-07-09T13:26:15;1.65;;;1.65;;
6898;SDS011;3488;42.616;23.350;2022-07-09T13:28:45;2.00;;;1.90;;
6898;SDS011;3488;42.616;23.350;2022-07-09T13:31:13;2.92;;;1.95;;
6898;SDS011;3488;42.616;23.350;2022-07-09T13:33:40;1.90;;;1.90;;
6898;SDS011;3488;42.616;23.350;2022-07-09T13:36:08;1.55;;;1.55;;
6898;SDS011;3488;42.616;23.350;2022-07-09T13:38:35;1.70;;;1.60;;
6898;SDS011;3488;42.616;23.350;2022-07-09T13:41:02;2.00;;;1.90;;
6898;SDS011;3488;42.616;23.350;2022-07-09T13:43:29;2.33;;;2.22;;
6898;SDS011;3488;42.616;23.350;2022-07-09T13:45:58;2.10;;;2.00;;
6898;SDS011;3488;42.616;23.350;2022-07-09T13:48:26;2.40;;;2.30;;
6898;SDS011;3488;42.616;23.350;2022-07-09T13:50:54;2.97;;;1.60;;
6898;SDS011;3488;42.616;23.350;2022-07-09T13:53:22;2.55;;;2.20;;
6898;SDS011;3488;42.616;23.350;2022-07-09T13:55:49;1.83;;;1.80;;
6898;SDS011;3488;42.616;23.350;2022-07-09T13:58:16;1.60;;;1.60;;
6898;SDS011;3488;42.616;23.350;2022-07-09T14:00:43;2.20;;;2.10;;
6898;SDS011;3488;42.616;23.350;2022-07-09T14:03:12;2.08;;;1.98;;
6898;SDS011;3488;42.616;23.350;2022-07-09T14:05:39;2.10;;;2.00;;
6898;SDS011;3488;42.616;23.350;2022-07-09T14:08:07;2.05;;;1.90;;
6898;SDS011;3488;42.616;23.350;2022-07-09T14:10:35;2.15;;;2.05;;
6898;SDS011;3488;42.616;23.350;2022-07-09T14:13:03;1.95;;;1.92;;
6898;SDS011;3488;42.616;23.350;2022-07-09T14:15:30;2.05;;;1.98;;
6898;SDS011;3488;42.616;23.350;2022-07-09T14:17:59;2.10;;;2.00;;
6898;SDS011;3488;42.616;23.350;2022-07-09T14:20:28;2.47;;;2.38;;
6898;SDS011;3488;42.616;23.350;2022-07-09T14:22:57;2.05;;;1.95;;
6898;SDS011;3488;42.616;23.350;2022-07-09T14:25:31;2.40;;;2.00;;
6898;SDS011;3488;42.616;23.350;2022-07-09T14:27:59;1.70;;;1.70;;
6898;SDS011;3488;42.616;23.350;2022-07-09T14:30:27;2.85;;;2.30;;
6898;SDS011;3488;42.616;23.350;2022-07-09T14:32:59;1.95;;;1.95;;
6898;SDS011;3488;42.616;23.350;2022-07-09T14:35:30;2.10;;;2.00;;
6898;SDS011;3488;42.616;23.350;2022-07-09T14:37:59;5.57;;;1.90;;
6898;SDS011;3488;42.616;23.350;2022-07-09T14:40:27;2.25;;;2.00;;
6898;SDS011;3488;42.616;23.350;2022-07-09T14:42:57;2.92;;;2.00;;
6898;SDS011;3488;42.616;23.350;2022-07-09T14:45:30;2.38;;;2.28;;
6898;SDS011;3488;42.616;23.350;2022-07-09T14:48:01;1.70;;;1.60;;
6898;SDS011;3488;42.616;23.350;2022-07-09T14:50:32;2.22;;;2.13;;
6898;SDS011;3488;42.616;23.350;2022-07-09T14:53:04;2.20;;;2.10;;
6898;SDS011;3488;42.616;23.350;2022-07-09T14:55:32;2.60;;;2.50;;
6898;SDS011;3488;42.616;23.350;2022-07-09T14:58:00;2.53;;;2.35;;
6898;SDS011;3488;42.616;23.350;2022-07-09T15:00:27;2.88;;;2.00;;
6898;SDS011;3488;42.616;23.350;2022-07-09T15:02:55;2.13;;;2.03;;
6898;SDS011;3488;42.616;23.350;2022-07-09T15:05:22;2.40;;;2.30;;
6898;SDS011;3488;42.616;23.350;2022-07-09T15:07:51;2.38;;;2.28;;
6898;SDS011;3488;42.616;23.350;2022-07-09T15:10:21;2.10;;;2.00;;
6898;SDS011;3488;42.616;23.350;2022-07-09T15:12:48;5.82;;;2.33;;
6898;SDS011;3488;42.616;23.350;2022-07-09T15:15:15;2.88;;;2.40;;
6898;SDS011;3488;42.616;23.350;2022-07-09T15:17:45;2.40;;;2.30;;
6898;SDS011;3488;42.616;23.350;2022-07-09T15:20:16;3.53;;;2.42;;
6898;SDS011;3488;42.616;23.350;2022-07-09T15:22:47;2.58;;;2.47;;
6898;SDS011;3488;42.616;23.350;2022-07-09T15:25:18;2.45;;;2.35;;
6898;SDS011;3488;42.616;23.350;2022-07-09T15:27:46;2.60;;;2.50;;
6898;SDS011;3488;42.616;23.350;2022-07-09T15:30:13;2.70;;;2.60;;
6898;SDS011;3488;42.616;23.350;2022-07-09T15:32:44;2.67;;;2.58;;
6898;SDS011;3488;42.616;23.350;2022-07-09T15:35:11;3.15;;;2.90;;
6898;SDS011;3488;42.616;23.350;2022-07-09T15:37:39;4.07;;;3.38;;
6898;SDS011;3488;42.616;23.350;2022-07-09T15:40:09;3.58;;;3.28;;
6898;SDS011;3488;42.616;23.350;2022-07-09T15:42:41;2.90;;;2.80;;
6898;SDS011;3488;42.616;23.350;2022-07-09T15:45:12;2.53;;;2.42;;
6898;SDS011;3488;42.616;23.350;2022-07-09T15:47:40;2.75;;;2.55;;
6898;SDS011;3488;42.616;23.350;2022-07-09T15:50:08;2.65;;;2.45;;
6898;SDS011;3488;42.616;23.350;2022-07-09T15:52:36;3.13;;;2.78;;
6898;SDS011;3488;42.616;23.350;2022-07-09T15:55:25;3.13;;;2.88;;
6898;SDS011;3488;42.616;23.350;2022-07-09T15:58:01;2.92;;;2.72;;
6898;SDS011;3488;42.616;23.350;2022-07-09T16:00:42;4.03;;;3.75;;
6898;SDS011;3488;42.616;23.350;2022-07-09T16:03:10;4.20;;;3.83;;
6898;SDS011;3488;42.616;23.350;2022-07-09T16:05:37;3.35;;;3.05;;
6898;SDS011;3488;42.616;23.350;2022-07-09T16:08:05;3.00;;;2.80;;
6898;SDS011;3488;42.616;23.350;2022-07-09T16:10:35;3.42;;;3.13;;